ESSP/NRK METAR and TAF weather

Enter ICAO airport designator
Station Type Date Time Source
ESSP METAR 2022/01/29 12:20 UTC NOAA

ESSP 291220Z AUTO 21008KT 180V240 9999 FEW005/// SCT010/// OVC016/// 06/04 Q0985


Station Type Date Time Source
ESSP Decoded METAR 2022/01/29 12:20 UTC NOAA

Norrkoping, Sweden (ESSP) 58-35N 016-09E 0M
Jan 29, 2022 - 07:20 AM EST / 2022.01.29 1220 UTC
Wind: from the SSW (210 degrees) at 9 MPH (8 KT) (direction variable):0
Visibility: greater than 7 mile(s):0
Sky conditions: overcast
Temperature: 42 F (6 C)
Dew Point: 39 F (4 C)
Relative Humidity: 86%
Pressure (altimeter): 29.09 in. Hg (0985 hPa)
ob: ESSP 291220Z AUTO 21008KT 180V240 9999 FEW005/// SCT010/// OVC016/// 06/04 Q0985
cycle: 12

Station Type Date Time Source
ESSP TAF 2018/01/01 02:31 UTC NOAA

TAF ESSP 010130Z 0102/0206 16002KT 9999 BKN004 PROB40 0102/0106 4000 BR SCT004

Example: see airport list